sensor_id;sensor_type;location;lat;lon;timestamp;pressure;altitude;pressure_sealevel;temperature;humidity
69402;BME280;56589;51.992;5.924;2023-04-20T00:02:12;101754.44;;;6.42;37.14
69402;BME280;56589;51.992;5.924;2023-04-20T00:04:37;101753.69;;;6.38;37.52
69402;BME280;56589;51.992;5.924;2023-04-20T00:07:03;101746.78;;;6.37;37.41
69402;BME280;56589;51.992;5.924;2023-04-20T00:09:29;101750.31;;;6.35;37.44
69402;BME280;56589;51.992;5.924;2023-04-20T00:11:55;101744.31;;;6.33;37.58
69402;BME280;56589;51.992;5.924;2023-04-20T00:14:20;101738.31;;;6.31;37.78
69402;BME280;56589;51.992;5.924;2023-04-20T00:16:47;101740.03;;;6.30;37.90
69402;BME280;56589;51.992;5.924;2023-04-20T00:19:15;101729.66;;;6.28;38.17
69402;BME280;56589;51.992;5.924;2023-04-20T00:21:41;101722.84;;;6.24;37.88
69402;BME280;56589;51.992;5.924;2023-04-20T00:24:07;101719.47;;;6.21;38.35
69402;BME280;56589;51.992;5.924;2023-04-20T00:26:33;101710.88;;;6.17;38.11
69402;BME280;56589;51.992;5.924;2023-04-20T00:28:59;101707.47;;;6.15;38.54
69402;BME280;56589;51.992;5.924;2023-04-20T00:31:24;101704.06;;;6.13;38.46
69402;BME280;56589;51.992;5.924;2023-04-20T00:33:50;101691.06;;;6.12;38.52
69402;BME280;56589;51.992;5.924;2023-04-20T00:36:18;101689.31;;;6.12;38.84
69402;BME280;56589;51.992;5.924;2023-04-20T00:38:44;101681.53;;;6.11;38.61
69402;BME280;56589;51.992;5.924;2023-04-20T00:41:10;101675.53;;;6.09;38.76
69402;BME280;56589;51.992;5.924;2023-04-20T00:43:36;101672.91;;;6.09;38.80
69402;BME280;56589;51.992;5.924;2023-04-20T00:46:02;101668.66;;;6.06;39.00
69402;BME280;56589;51.992;5.924;2023-04-20T00:48:28;101670.38;;;6.06;38.95
69402;BME280;56589;51.992;5.924;2023-04-20T00:50:53;101661.72;;;6.05;39.21
69402;BME280;56589;51.992;5.924;2023-04-20T00:53:22;101660.91;;;6.03;39.37
69402;BME280;56589;51.992;5.924;2023-04-20T00:55:49;101653.22;;;6.00;39.46
69402;BME280;56589;51.992;5.924;2023-04-20T00:58:15;101653.22;;;5.98;39.32
69402;BME280;56589;51.992;5.924;2023-04-20T01:00:41;101649.84;;;5.96;39.74
69402;BME280;56589;51.992;5.924;2023-04-20T01:03:07;101649.88;;;5.95;39.54
69402;BME280;56589;51.992;5.924;2023-04-20T01:05:33;101639.47;;;5.93;40.16
69402;BME280;56589;51.992;5.924;2023-04-20T01:07:59;101638.59;;;5.94;40.06
69402;BME280;56589;51.992;5.924;2023-04-20T01:10:28;101636.84;;;5.95;40.57
69402;BME280;56589;51.992;5.924;2023-04-20T01:12:54;101635.09;;;5.95;40.68
69402;BME280;56589;51.992;5.924;2023-04-20T01:15:20;101628.00;;;6.00;41.32
69402;BME280;56589;51.992;5.924;2023-04-20T01:17:45;101626.06;;;6.06;41.00
69402;BME280;56589;51.992;5.924;2023-04-20T01:20:11;101622.38;;;6.13;41.51
69402;BME280;56589;51.992;5.924;2023-04-20T01:22:44;101616.91;;;6.20;42.14
69402;BME280;56589;51.992;5.924;2023-04-20T01:25:10;101613.19;;;6.27;42.19
69402;BME280;56589;51.992;5.924;2023-04-20T01:27:36;101607.84;;;6.32;41.92
69402;BME280;56589;51.992;5.924;2023-04-20T01:30:02;101602.31;;;6.41;42.23
69402;BME280;56589;51.992;5.924;2023-04-20T01:32:28;101600.25;;;6.51;42.59
69402;BME280;56589;51.992;5.924;2023-04-20T01:34:54;101593.91;;;6.58;42.74
69402;BME280;56589;51.992;5.924;2023-04-20T01:37:20;101597.22;;;6.63;43.10
69402;BME280;56589;51.992;5.924;2023-04-20T01:39:48;101587.50;;;6.67;43.61
69402;BME280;56589;51.992;5.924;2023-04-20T01:42:14;101583.06;;;6.70;43.25
69402;BME280;56589;51.992;5.924;2023-04-20T01:44:40;101587.47;;;6.68;43.85
69402;BME280;56589;51.992;5.924;2023-04-20T01:47:06;101579.66;;;6.68;43.94
69402;BME280;56589;51.992;5.924;2023-04-20T01:49:31;101584.06;;;6.66;44.18
69402;BME280;56589;51.992;5.924;2023-04-20T01:51:57;101571.06;;;6.65;44.66
69402;BME280;56589;51.992;5.924;2023-04-20T01:54:23;101569.38;;;6.64;44.27
69402;BME280;56589;51.992;5.924;2023-04-20T01:56:51;101572.03;;;6.62;44.84
69402;BME280;56589;51.992;5.924;2023-04-20T01:59:17;101569.59;;;6.58;45.18
69402;BME280;56589;51.992;5.924;2023-04-20T02:01:43;101567.94;;;6.55;44.93
69402;BME280;56589;51.992;5.924;2023-04-20T02:04:09;101561.13;;;6.51;46.05
69402;BME280;56589;51.992;5.924;2023-04-20T02:06:34;101571.63;;;6.49;46.16
69402;BME280;56589;51.992;5.924;2023-04-20T02:09:00;101557.72;;;6.49;45.55
69402;BME280;56589;51.992;5.924;2023-04-20T02:11:26;101554.28;;;6.47;45.63
69402;BME280;56589;51.992;5.924;2023-04-20T02:13:54;101550.03;;;6.44;46.17
69402;BME280;56589;51.992;5.924;2023-04-20T02:16:21;101546.63;;;6.42;46.41
69402;BME280;56589;51.992;5.924;2023-04-20T02:18:47;101543.22;;;6.40;46.70
69402;BME280;56589;51.992;5.924;2023-04-20T02:21:13;101532.84;;;6.39;46.49
69402;BME280;56589;51.992;5.924;2023-04-20T02:23:38;101532.06;;;6.37;46.86
69402;BME280;56589;51.992;5.924;2023-04-20T02:26:04;101527.56;;;6.40;46.52
69402;BME280;56589;51.992;5.924;2023-04-20T02:28:30;101523.16;;;6.42;46.59
69402;BME280;56589;51.992;5.924;2023-04-20T02:30:59;101518.75;;;6.44;47.32
69402;BME280;56589;51.992;5.924;2023-04-20T02:33:25;101511.66;;;6.48;47.00
69402;BME280;56589;51.992;5.924;2023-04-20T02:35:50;101510.69;;;6.50;47.42
69402;BME280;56589;51.992;5.924;2023-04-20T02:38:16;101508.88;;;6.52;47.71
69402;BME280;56589;51.992;5.924;2023-04-20T02:40:42;101511.34;;;6.57;47.57
69402;BME280;56589;51.992;5.924;2023-04-20T02:43:08;101516.50;;;6.59;47.50
69402;BME280;56589;51.992;5.924;2023-04-20T02:45:34;101516.34;;;6.63;47.81
69402;BME280;56589;51.992;5.924;2023-04-20T02:48:03;101503.22;;;6.65;47.49
69402;BME280;56589;51.992;5.924;2023-04-20T02:50:29;101508.28;;;6.69;48.20
69402;BME280;56589;51.992;5.924;2023-04-20T02:52:55;101503.00;;;6.71;48.20
69402;BME280;56589;51.992;5.924;2023-04-20T02:55:20;101491.56;;;6.75;48.21
69402;BME280;56589;51.992;5.924;2023-04-20T02:57:46;101501.88;;;6.78;48.34
69402;BME280;56589;51.992;5.924;2023-04-20T03:00:13;101497.50;;;6.78;48.23
69402;BME280;56589;51.992;5.924;2023-04-20T03:02:39;101495.69;;;6.80;48.72
69402;BME280;56589;51.992;5.924;2023-04-20T03:05:08;101494.78;;;6.81;48.93
69402;BME280;56589;51.992;5.924;2023-04-20T03:07:34;101493.94;;;6.81;48.84
69402;BME280;56589;51.992;5.924;2023-04-20T03:09:59;101494.00;;;6.79;49.26
69402;BME280;56589;51.992;5.924;2023-04-20T03:12:25;101485.19;;;6.82;48.80
69402;BME280;56589;51.992;5.924;2023-04-20T03:14:51;101477.28;;;6.84;48.69
69402;BME280;56589;51.992;5.924;2023-04-20T03:17:17;101480.66;;;6.87;48.91
69402;BME280;56589;51.992;5.924;2023-04-20T03:19:42;101477.97;;;6.89;48.90
69402;BME280;56589;51.992;5.924;2023-04-20T03:22:11;101471.91;;;6.88;49.09
69402;BME280;56589;51.992;5.924;2023-04-20T03:24:37;101461.47;;;6.88;49.19
69402;BME280;56589;51.992;5.924;2023-04-20T03:27:02;101465.03;;;6.86;49.06
69402;BME280;56589;51.992;5.924;2023-04-20T03:29:28;101470.22;;;6.87;49.15
69402;BME280;56589;51.992;5.924;2023-04-20T03:31:54;101471.13;;;6.86;49.34
69402;BME280;56589;51.992;5.924;2023-04-20T03:34:20;101459.81;;;6.86;49.44
69402;BME280;56589;51.992;5.924;2023-04-20T03:36:45;101466.75;;;6.87;49.77
69402;BME280;56589;51.992;5.924;2023-04-20T03:39:14;101462.47;;;6.84;50.13
69402;BME280;56589;51.992;5.924;2023-04-20T03:41:39;101453.75;;;6.85;50.15
69402;BME280;56589;51.992;5.924;2023-04-20T03:44:05;101464.25;;;6.84;50.17
69402;BME280;56589;51.992;5.924;2023-04-20T03:46:31;101463.41;;;6.83;50.19
69402;BME280;56589;51.992;5.924;2023-04-20T03:48:57;101463.41;;;6.83;50.47
69402;BME280;56589;51.992;5.924;2023-04-20T03:51:22;101465.09;;;6.84;50.40
69402;BME280;56589;51.992;5.924;2023-04-20T03:53:48;101462.47;;;6.84;50.51
69402;BME280;56589;51.992;5.924;2023-04-20T03:56:17;101459.03;;;6.84;50.26
69402;BME280;56589;51.992;5.924;2023-04-20T03:58:42;101452.88;;;6.86;50.48
69402;BME280;56589;51.992;5.924;2023-04-20T04:01:09;101452.88;;;6.86;50.66
69402;BME280;56589;51.992;5.924;2023-04-20T04:03:35;101450.25;;;6.86;50.43
69402;BME280;56589;51.992;5.924;2023-04-20T04:06:01;101444.22;;;6.84;50.42
69402;BME280;56589;51.992;5.924;2023-04-20T04:08:27;101440.75;;;6.84;50.69
69402;BME280;56589;51.992;5.924;2023-04-20T04:10:53;101431.22;;;6.82;50.56
69402;BME280;56589;51.992;5.924;2023-04-20T04:13:21;101428.56;;;6.84;50.93
69402;BME280;56589;51.992;5.924;2023-04-20T04:15:47;101426.84;;;6.83;51.09
69402;BME280;56589;51.992;5.924;2023-04-20T04:18:13;101425.16;;;6.82;50.94
69402;BME280;56589;51.992;5.924;2023-04-20T04:20:39;101421.63;;;6.83;51.14
69402;BME280;56589;51.992;5.924;2023-04-20T04:23:05;101408.53;;;6.85;51.17
69402;BME280;56589;51.992;5.924;2023-04-20T04:25:31;101414.66;;;6.84;51.36
69402;BME280;56589;51.992;5.924;2023-04-20T04:27:56;101411.19;;;6.83;51.30
69402;BME280;56589;51.992;5.924;2023-04-20T04:30:25;101401.59;;;6.84;51.43
69402;BME280;56589;51.992;5.924;2023-04-20T04:32:51;101414.59;;;6.85;51.67
69402;BME280;56589;51.992;5.924;2023-04-20T04:35:17;101398.91;;;6.87;51.29
69402;BME280;56589;51.992;5.924;2023-04-20T04:37:43;101397.13;;;6.87;51.47
69402;BME280;56589;51.992;5.924;2023-04-20T04:40:09;101404.97;;;6.87;51.25
69402;BME280;56589;51.992;5.924;2023-04-20T04:42:35;101402.28;;;6.89;51.50
69402;BME280;56589;51.992;5.924;2023-04-20T04:45:01;101400.53;;;6.89;51.58
69402;BME280;56589;51.992;5.924;2023-04-20T04:47:33;101399.59;;;6.90;51.85
69402;BME280;56589;51.992;5.924;2023-04-20T04:49:59;101412.66;;;6.90;51.50
69402;BME280;56589;51.992;5.924;2023-04-20T04:52:24;101396.16;;;6.90;51.62
69402;BME280;56589;51.992;5.924;2023-04-20T04:54:50;101413.47;;;6.92;51.52
69402;BME280;56589;51.992;5.924;2023-04-20T04:57:16;101410.72;;;6.95;51.49
69402;BME280;56589;51.992;5.924;2023-04-20T04:59:42;101411.56;;;6.96;51.63
69402;BME280;56589;51.992;5.924;2023-04-20T05:02:08;101405.41;;;6.98;51.91
69402;BME280;56589;51.992;5.924;2023-04-20T05:04:36;101407.94;;;7.00;51.83
69402;BME280;56589;51.992;5.924;2023-04-20T05:07:02;101405.25;;;7.01;51.56
69402;BME280;56589;51.992;5.924;2023-04-20T05:09:28;101402.59;;;7.03;51.92
69402;BME280;56589;51.992;5.924;2023-04-20T05:11:54;101400.72;;;7.06;51.51
69402;BME280;56589;51.992;5.924;2023-04-20T05:14:19;101408.41;;;7.09;51.87
69402;BME280;56589;51.992;5.924;2023-04-20T05:16:45;101402.31;;;7.11;51.71
69402;BME280;56589;51.992;5.924;2023-04-20T05:19:11;101407.31;;;7.15;51.75
69402;BME280;56589;51.992;5.924;2023-04-20T05:21:39;101411.63;;;7.16;51.80
69402;BME280;56589;51.992;5.924;2023-04-20T05:24:05;101408.91;;;7.19;51.78
69402;BME280;56589;51.992;5.924;2023-04-20T05:26:31;101409.69;;;7.21;51.96
69402;BME280;56589;51.992;5.924;2023-04-20T05:28:57;101404.34;;;7.24;52.04
69402;BME280;56589;51.992;5.924;2023-04-20T05:31:23;101409.34;;;7.30;51.71
69402;BME280;56589;51.992;5.924;2023-04-20T05:33:48;101399.66;;;7.32;52.52
69402;BME280;56589;51.992;5.924;2023-04-20T05:36:14;101406.66;;;7.32;52.03
69402;BME280;56589;51.992;5.924;2023-04-20T05:38:43;101405.81;;;7.31;52.24
69402;BME280;56589;51.992;5.924;2023-04-20T05:41:09;101404.88;;;7.32;52.20
69402;BME280;56589;51.992;5.924;2023-04-20T05:43:34;101405.66;;;7.36;52.52
69402;BME280;56589;51.992;5.924;2023-04-20T05:46:00;101401.31;;;7.35;52.37
69402;BME280;56589;51.992;5.924;2023-04-20T05:48:26;101396.00;;;7.38;52.50
69402;BME280;56589;51.992;5.924;2023-04-20T05:50:52;101393.31;;;7.40;52.67
69402;BME280;56589;51.992;5.924;2023-04-20T05:53:18;101386.97;;;7.45;52.57
69402;BME280;56589;51.992;5.924;2023-04-20T05:55:46;101395.56;;;7.49;52.46
69402;BME280;56589;51.992;5.924;2023-04-20T05:58:12;101397.97;;;7.53;52.33
69402;BME280;56589;51.992;5.924;2023-04-20T06:00:38;101395.03;;;7.61;52.54
69402;BME280;56589;51.992;5.924;2023-04-20T06:03:03;101401.03;;;7.63;52.17
69402;BME280;56589;51.992;5.924;2023-04-20T06:05:29;101398.19;;;7.69;52.83
69402;BME280;56589;51.992;5.924;2023-04-20T06:07:55;101390.22;;;7.72;52.37
69402;BME280;56589;51.992;5.924;2023-04-20T06:10:21;101395.13;;;7.80;52.66
69402;BME280;56589;51.992;5.924;2023-04-20T06:12:49;101384.06;;;7.94;52.31
69402;BME280;56589;51.992;5.924;2023-04-20T06:15:15;101375.31;;;8.13;51.99
69402;BME280;56589;51.992;5.924;2023-04-20T06:17:41;101382.50;;;8.29;51.70
69402;BME280;56589;51.992;5.924;2023-04-20T06:20:08;101380.59;;;8.32;51.05
69402;BME280;56589;51.992;5.924;2023-04-20T06:22:35;101384.28;;;8.28;50.98
69402;BME280;56589;51.992;5.924;2023-04-20T06:25:01;101382.91;;;8.20;50.86
69402;BME280;56589;51.992;5.924;2023-04-20T06:27:27;101391.03;;;8.13;51.22
69402;BME280;56589;51.992;5.924;2023-04-20T06:29:56;101384.03;;;8.14;51.51
69402;BME280;56589;51.992;5.924;2023-04-20T06:32:21;101380.25;;;8.40;52.15
69402;BME280;56589;51.992;5.924;2023-04-20T06:34:47;101387.31;;;8.76;51.29
69402;BME280;56589;51.992;5.924;2023-04-20T06:37:13;101387.44;;;8.91;50.29
69402;BME280;56589;51.992;5.924;2023-04-20T06:39:38;101385.00;;;8.88;50.09
69402;BME280;56589;51.992;5.924;2023-04-20T06:42:04;101384.13;;;8.88;50.09
69402;BME280;56589;51.992;5.924;2023-04-20T06:44:30;101378.19;;;8.84;50.15
69402;BME280;56589;51.992;5.924;2023-04-20T06:46:58;101378.06;;;8.68;50.20
69402;BME280;56589;51.992;5.924;2023-04-20T06:49:24;101376.94;;;8.55;50.40
69402;BME280;56589;51.992;5.924;2023-04-20T06:51:50;101376.00;;;8.37;50.67
69402;BME280;56589;51.992;5.924;2023-04-20T06:54:16;101381.78;;;8.25;50.78
69402;BME280;56589;51.992;5.924;2023-04-20T06:56:41;101369.81;;;8.20;51.10
69402;BME280;56589;51.992;5.924;2023-04-20T06:59:07;101371.78;;;8.14;51.76
69402;BME280;56589;51.992;5.924;2023-04-20T07:01:33;101377.75;;;8.18;51.80
69402;BME280;56589;51.992;5.924;2023-04-20T07:04:01;101380.75;;;8.29;51.48
69402;BME280;56589;51.992;5.924;2023-04-20T07:06:27;101385.50;;;8.40;51.53
69402;BME280;56589;51.992;5.924;2023-04-20T07:08:53;101377.56;;;8.41;51.93
69402;BME280;56589;51.992;5.924;2023-04-20T07:11:18;101370.97;;;8.33;52.05
69402;BME280;56589;51.992;5.924;2023-04-20T07:13:44;101387.94;;;8.24;52.29
69402;BME280;56589;51.992;5.924;2023-04-20T07:16:10;101387.84;;;8.26;52.59
69402;BME280;56589;51.992;5.924;2023-04-20T07:18:36;101382.63;;;8.26;52.86
69402;BME280;56589;51.992;5.924;2023-04-20T07:21:04;101377.28;;;8.29;52.71
69402;BME280;56589;51.992;5.924;2023-04-20T07:23:30;101385.03;;;8.30;52.64
69402;BME280;56589;51.992;5.924;2023-04-20T07:25:56;101376.44;;;8.28;52.81
69402;BME280;56589;51.992;5.924;2023-04-20T07:28:21;101378.19;;;8.28;52.42
69402;BME280;56589;51.992;5.924;2023-04-20T07:30:47;101379.38;;;8.21;52.92
69402;BME280;56589;51.992;5.924;2023-04-20T07:33:13;101382.22;;;8.16;53.16
69402;BME280;56589;51.992;5.924;2023-04-20T07:35:39;101377.94;;;8.13;52.80
69402;BME280;56589;51.992;5.924;2023-04-20T07:38:08;101380.50;;;8.15;53.08
69402;BME280;56589;51.992;5.924;2023-04-20T07:40:33;101388.47;;;8.12;53.53
69402;BME280;56589;51.992;5.924;2023-04-20T07:42:59;101383.25;;;8.12;53.52
69402;BME280;56589;51.992;5.924;2023-04-20T07:45:25;101383.75;;;8.20;53.84
69402;BME280;56589;51.992;5.924;2023-04-20T07:47:51;101374.59;;;8.30;53.18
69402;BME280;56589;51.992;5.924;2023-04-20T07:50:17;101380.25;;;8.40;53.68
69402;BME280;56589;51.992;5.924;2023-04-20T07:52:42;101371.97;;;8.49;53.30
69402;BME280;56589;51.992;5.924;2023-04-20T07:55:11;101368.31;;;8.53;53.04
69402;BME280;56589;51.992;5.924;2023-04-20T07:57:37;101365.53;;;8.56;53.44
69402;BME280;56589;51.992;5.924;2023-04-20T08:00:04;101366.94;;;8.63;53.38
69402;BME280;56589;51.992;5.924;2023-04-20T08:02:31;101357.75;;;8.74;53.26
69402;BME280;56589;51.992;5.924;2023-04-20T08:04:57;101365.03;;;8.86;52.97
69402;BME280;56589;51.992;5.924;2023-04-20T08:07:23;101365.75;;;8.89;52.03
69402;BME280;56589;51.992;5.924;2023-04-20T08:09:49;101365.31;;;8.80;52.51
69402;BME280;56589;51.992;5.924;2023-04-20T08:12:17;101374.38;;;8.73;52.66
69402;BME280;56589;51.992;5.924;2023-04-20T08:14:43;101370.34;;;8.65;52.85
69402;BME280;56589;51.992;5.924;2023-04-20T08:17:08;101368.72;;;8.63;53.12
69402;BME280;56589;51.992;5.924;2023-04-20T08:19:34;101368.50;;;8.67;52.93
69402;BME280;56589;51.992;5.924;2023-04-20T08:22:00;101352.59;;;8.72;53.01
69402;BME280;56589;51.992;5.924;2023-04-20T08:24:26;101363.91;;;8.73;52.85
69402;BME280;56589;51.992;5.924;2023-04-20T08:26:52;101356.97;;;8.72;52.71
69402;BME280;56589;51.992;5.924;2023-04-20T08:29:20;101349.69;;;8.78;53.01
69402;BME280;56589;51.992;5.924;2023-04-20T08:31:46;101358.94;;;8.85;52.67
69402;BME280;56589;51.992;5.924;2023-04-20T08:34:12;101355.47;;;8.85;53.17
69402;BME280;56589;51.992;5.924;2023-04-20T08:36:38;101363.41;;;8.83;53.37
69402;BME280;56589;51.992;5.924;2023-04-20T08:39:06;101349.75;;;8.77;53.12
69402;BME280;56589;51.992;5.924;2023-04-20T08:41:34;101355.50;;;8.66;53.18
69402;BME280;56589;51.992;5.924;2023-04-20T08:44:00;101348.84;;;8.59;53.24
69402;BME280;56589;51.992;5.924;2023-04-20T08:46:28;101347.22;;;8.56;53.53
69402;BME280;56589;51.992;5.924;2023-04-20T08:48:55;101345.41;;;8.58;53.90
69402;BME280;56589;51.992;5.924;2023-04-20T08:51:22;101350.25;;;8.66;54.02
69402;BME280;56589;51.992;5.924;2023-04-20T08:53:48;101344.56;;;8.75;53.67
69402;BME280;56589;51.992;5.924;2023-04-20T08:56:14;101343.59;;;8.78;53.87
69402;BME280;56589;51.992;5.924;2023-04-20T08:58:40;101351.28;;;8.81;53.50
69402;BME280;56589;51.992;5.924;2023-04-20T09:01:06;101339.75;;;8.85;53.48
69402;BME280;56589;51.992;5.924;2023-04-20T09:03:36;101346.69;;;8.86;53.83
69402;BME280;56589;51.992;5.924;2023-04-20T09:06:04;101348.63;;;8.82;53.54
69402;BME280;56589;51.992;5.924;2023-04-20T09:08:39;101353.16;;;8.79;53.89
69402;BME280;56589;51.992;5.924;2023-04-20T09:11:06;101358.03;;;8.67;53.70
69402;BME280;56589;51.992;5.924;2023-04-20T09:13:56;101349.91;;;8.55;54.25
69402;BME280;56589;51.992;5.924;2023-04-20T09:16:23;101352.59;;;8.53;54.87
69402;BME280;56589;51.992;5.924;2023-04-20T09:18:53;101345.53;;;8.55;54.72
69402;BME280;56589;51.992;5.924;2023-04-20T09:21:22;101341.84;;;8.59;54.69
69402;BME280;56589;51.992;5.924;2023-04-20T09:23:56;101350.25;;;8.66;54.73
69402;BME280;56589;51.992;5.924;2023-04-20T09:26:24;101346.34;;;8.75;54.78
69402;BME280;56589;51.992;5.924;2023-04-20T09:28:50;101358.38;;;8.79;54.12
69402;BME280;56589;51.992;5.924;2023-04-20T09:31:17;101358.19;;;8.64;54.72
69402;BME280;56589;51.992;5.924;2023-04-20T09:33:43;101354.50;;;8.50;54.77
69402;BME280;56589;51.992;5.924;2023-04-20T09:36:11;101347.84;;;8.42;54.88
69402;BME280;56589;51.992;5.924;2023-04-20T09:38:37;101352.25;;;8.42;54.93
69402;BME280;56589;51.992;5.924;2023-04-20T09:41:03;101353.28;;;8.38;54.84
69402;BME280;56589;51.992;5.924;2023-04-20T09:43:31;101346.72;;;8.29;55.27
69402;BME280;56589;51.992;5.924;2023-04-20T09:45:59;101351.38;;;8.23;55.40
69402;BME280;56589;51.992;5.924;2023-04-20T09:48:27;101348.06;;;8.19;55.56
69402;BME280;56589;51.992;5.924;2023-04-20T09:50:53;101353.16;;;8.22;55.55
69402;BME280;56589;51.992;5.924;2023-04-20T09:53:23;101336.53;;;8.23;55.01
69402;BME280;56589;51.992;5.924;2023-04-20T09:55:49;101341.78;;;8.23;55.45
69402;BME280;56589;51.992;5.924;2023-04-20T09:58:16;101333.22;;;8.38;55.65
69402;BME280;56589;51.992;5.924;2023-04-20T10:00:43;101332.88;;;8.65;55.11
69402;BME280;56589;51.992;5.924;2023-04-20T10:03:09;101336.22;;;8.86;54.61
69402;BME280;56589;51.992;5.924;2023-04-20T10:05:35;101337.25;;;9.01;54.18
69402;BME280;56589;51.992;5.924;2023-04-20T10:08:02;101331.56;;;9.10;53.88
69402;BME280;56589;51.992;5.924;2023-04-20T10:10:42;101335.84;;;9.30;53.22
69402;BME280;56589;51.992;5.924;2023-04-20T10:13:08;101326.28;;;9.46;53.12
69402;BME280;56589;51.992;5.924;2023-04-20T10:15:39;101317.63;;;9.61;53.02
69402;BME280;56589;51.992;5.924;2023-04-20T10:18:16;101316.00;;;9.76;53.04
69402;BME280;56589;51.992;5.924;2023-04-20T10:20:44;101312.53;;;9.75;52.09
69402;BME280;56589;51.992;5.924;2023-04-20T10:23:10;101314.56;;;9.86;51.68
69402;BME280;56589;51.992;5.924;2023-04-20T10:25:39;101312.41;;;9.94;50.40
69402;BME280;56589;51.992;5.924;2023-04-20T10:28:05;101303.63;;;9.95;51.08
69402;BME280;56589;51.992;5.924;2023-04-20T10:30:32;101308.72;;;10.14;50.87
69402;BME280;56589;51.992;5.924;2023-04-20T10:33:02;101301.44;;;10.19;50.41
69402;BME280;56589;51.992;5.924;2023-04-20T10:35:40;101294.84;;;10.12;49.24
69402;BME280;56589;51.992;5.924;2023-04-20T10:38:06;101282.81;;;10.08;49.88
69402;BME280;56589;51.992;5.924;2023-04-20T10:40:33;101286.97;;;10.12;49.52
69402;BME280;56589;51.992;5.924;2023-04-20T10:43:01;101296.81;;;10.24;49.33
69402;BME280;56589;51.992;5.924;2023-04-20T10:45:33;101299.00;;;10.32;49.46
69402;BME280;56589;51.992;5.924;2023-04-20T10:48:06;101304.50;;;10.27;48.15
69402;BME280;56589;51.992;5.924;2023-04-20T10:50:32;101289.94;;;10.22;48.83
69402;BME280;56589;51.992;5.924;2023-04-20T10:52:58;101288.00;;;10.25;49.32
69402;BME280;56589;51.992;5.924;2023-04-20T10:55:24;101297.91;;;10.36;49.79
69402;BME280;56589;51.992;5.924;2023-04-20T10:57:51;101277.00;;;10.66;49.86
69402;BME280;56589;51.992;5.924;2023-04-20T11:00:22;101281.78;;;10.90;47.84
69402;BME280;56589;51.992;5.924;2023-04-20T11:02:51;101290.00;;;10.83;47.93
69402;BME280;56589;51.992;5.924;2023-04-20T11:05:19;101282.97;;;10.84;47.75
69402;BME280;56589;51.992;5.924;2023-04-20T11:07:49;101284.91;;;10.80;48.06
69402;BME280;56589;51.992;5.924;2023-04-20T11:10:16;101278.09;;;10.62;47.93
69402;BME280;56589;51.992;5.924;2023-04-20T11:12:42;101282.75;;;10.41;48.33
69402;BME280;56589;51.992;5.924;2023-04-20T11:15:09;101280.78;;;10.29;48.20
69402;BME280;56589;51.992;5.924;2023-04-20T11:17:37;101276.22;;;10.17;48.49
69402;BME280;56589;51.992;5.924;2023-04-20T11:20:05;101267.91;;;10.09;48.78
69402;BME280;56589;51.992;5.924;2023-04-20T11:22:32;101279.69;;;10.01;48.77
69402;BME280;56589;51.992;5.924;2023-04-20T11:25:02;101263.09;;;10.01;49.18
69402;BME280;56589;51.992;5.924;2023-04-20T11:27:28;101258.59;;;10.03;49.09
69402;BME280;56589;51.992;5.924;2023-04-20T11:29:55;101259.38;;;10.05;49.02
69402;BME280;56589;51.992;5.924;2023-04-20T11:32:22;101260.47;;;10.01;49.01
69402;BME280;56589;51.992;5.924;2023-04-20T11:35:01;101252.75;;;9.98;48.71
69402;BME280;56589;51.992;5.924;2023-04-20T11:37:28;101247.50;;;9.98;49.45
69402;BME280;56589;51.992;5.924;2023-04-20T11:40:00;101248.09;;;10.03;49.27
69402;BME280;56589;51.992;5.924;2023-04-20T11:42:27;101242.72;;;10.06;49.22
69402;BME280;56589;51.992;5.924;2023-04-20T11:44:53;101238.97;;;10.10;48.81
69402;BME280;56589;51.992;5.924;2023-04-20T11:47:19;101255.75;;;10.08;48.87
69402;BME280;56589;51.992;5.924;2023-04-20T11:49:45;101249.66;;;10.07;49.72
69402;BME280;56589;51.992;5.924;2023-04-20T11:52:13;101246.69;;;10.13;49.09
69402;BME280;56589;51.992;5.924;2023-04-20T11:54:39;101247.63;;;10.12;49.00
69402;BME280;56589;51.992;5.924;2023-04-20T11:57:04;101247.13;;;10.06;49.60
69402;BME280;56589;51.992;5.924;2023-04-20T11:59:30;101247.03;;;10.07;49.47
69402;BME280;56589;51.992;5.924;2023-04-20T12:01:56;101254.13;;;10.05;49.70
69402;BME280;56589;51.992;5.924;2023-04-20T12:04:22;101243.97;;;9.99;49.56
69402;BME280;56589;51.992;5.924;2023-04-20T12:06:48;101253.09;;;9.92;49.74
69402;BME280;56589;51.992;5.924;2023-04-20T12:09:16;101242.03;;;9.87;49.65
69402;BME280;56589;51.992;5.924;2023-04-20T12:11:42;101233.53;;;9.82;50.03
69402;BME280;56589;51.992;5.924;2023-04-20T12:14:07;101238.78;;;9.82;50.18
69402;BME280;56589;51.992;5.924;2023-04-20T12:16:33;101242.78;;;9.89;50.31
69402;BME280;56589;51.992;5.924;2023-04-20T12:18:59;101237.00;;;9.98;49.79
69402;BME280;56589;51.992;5.924;2023-04-20T12:21:25;101245.31;;;9.90;49.17
69402;BME280;56589;51.992;5.924;2023-04-20T12:23:51;101243.19;;;9.81;49.76
69402;BME280;56589;51.992;5.924;2023-04-20T12:26:19;101228.44;;;9.79;49.84
69402;BME280;56589;51.992;5.924;2023-04-20T12:28:45;101235.28;;;9.65;49.86
69402;BME280;56589;51.992;5.924;2023-04-20T12:31:10;101229.28;;;9.63;50.25
69402;BME280;56589;51.992;5.924;2023-04-20T12:33:36;101233.69;;;9.63;50.17
69402;BME280;56589;51.992;5.924;2023-04-20T12:36:02;101231.28;;;9.58;50.67
69402;BME280;56589;51.992;5.924;2023-04-20T12:38:28;101229.44;;;9.60;50.50
69402;BME280;56589;51.992;5.924;2023-04-20T12:40:54;101231.72;;;9.66;50.64
69402;BME280;56589;51.992;5.924;2023-04-20T12:43:22;101241.41;;;9.82;50.13
69402;BME280;56589;51.992;5.924;2023-04-20T12:45:48;101245.47;;;9.87;50.14
69402;BME280;56589;51.992;5.924;2023-04-20T12:48:14;101237.34;;;9.92;50.23
69402;BME280;56589;51.992;5.924;2023-04-20T12:50:39;101231.28;;;10.07;49.88
69402;BME280;56589;51.992;5.924;2023-04-20T12:53:05;101235.66;;;10.22;50.10
69402;BME280;56589;51.992;5.924;2023-04-20T12:55:31;101224.06;;;10.26;49.15
69402;BME280;56589;51.992;5.924;2023-04-20T12:57:57;101235.31;;;10.28;49.19